createdAt,value
2022-11-29T00:01:09.813Z,99.90
2022-11-29T00:03:19.136Z,99.90
2022-11-29T00:05:26.168Z,99.90
2022-11-29T00:07:33.513Z,99.90
2022-11-29T00:09:40.378Z,99.90
2022-11-29T00:12:03.791Z,99.90
2022-11-29T00:14:11.125Z,99.90
2022-11-29T00:16:18.409Z,99.90
2022-11-29T00:18:26.924Z,99.90
2022-11-29T00:20:34.718Z,99.90
2022-11-29T00:22:41.596Z,99.90
2022-11-29T00:24:48.726Z,99.90
2022-11-29T00:26:55.804Z,99.90
2022-11-29T00:29:02.882Z,99.90
2022-11-29T00:31:18.393Z,99.90
2022-11-29T00:33:27.896Z,99.90
2022-11-29T00:35:34.752Z,99.90
2022-11-29T00:37:42.362Z,99.90
2022-11-29T00:39:49.133Z,99.90
2022-11-29T00:41:56.263Z,99.90
2022-11-29T00:44:03.086Z,99.90
2022-11-29T00:46:11.165Z,99.90
2022-11-29T00:48:18.167Z,99.90
2022-11-29T00:50:26.938Z,99.90
2022-11-29T00:52:33.881Z,99.90
2022-11-29T00:54:40.870Z,99.90
2022-11-29T00:56:47.815Z,99.90
2022-11-29T00:58:55.252Z,99.90
2022-11-29T01:01:02.034Z,99.70
2022-11-29T01:03:09.154Z,99.50
2022-11-29T01:05:15.874Z,99.40
2022-11-29T01:07:24.741Z,99.30
2022-11-29T01:09:31.571Z,99.10
2022-11-29T01:11:39.058Z,98.90
2022-11-29T01:13:46.239Z,98.50
2022-11-29T01:15:59.821Z,98.10
2022-11-29T01:18:06.731Z,97.80
2022-11-29T01:20:17.055Z,97.30
2022-11-29T01:22:25.566Z,97.10
2022-11-29T01:24:34.028Z,96.80
2022-11-29T01:26:41.158Z,96.30
2022-11-29T01:28:49.977Z,96.00
2022-11-29T01:30:56.865Z,95.60
2022-11-29T01:33:03.981Z,95.20
2022-11-29T01:35:11.829Z,95.00
2022-11-29T01:37:19.114Z,94.70
2022-11-29T01:39:27.625Z,94.40
2022-11-29T01:41:36.041Z,94.20
2022-11-29T01:43:58.936Z,94.10
2022-11-29T01:46:06.084Z,93.60
2022-11-29T01:48:13.813Z,93.40
2022-11-29T01:50:21.403Z,93.20
2022-11-29T01:52:31.452Z,93.00
2022-11-29T01:54:45.011Z,92.30
2022-11-29T01:56:53.752Z,91.90
2022-11-29T01:59:00.984Z,91.50
2022-11-29T02:01:07.803Z,91.20
2022-11-29T02:03:17.395Z,90.90
2022-11-29T02:05:25.143Z,90.90
2022-11-29T02:07:32.223Z,90.60
2022-11-29T02:09:40.784Z,90.20
2022-11-29T02:12:09.061Z,89.30
2022-11-29T02:14:33.239Z,89.00
2022-11-29T02:16:46.207Z,88.80
2022-11-29T02:19:06.292Z,88.80
2022-11-29T02:21:41.172Z,88.20
2022-11-29T02:24:14.006Z,87.30
2022-11-29T02:26:40.900Z,85.30
2022-11-29T02:29:29.451Z,86.00
2022-11-29T02:32:08.120Z,85.10
2022-11-29T02:34:40.752Z,85.60
2022-11-29T02:37:07.253Z,84.60
2022-11-29T02:40:02.389Z,83.90
2022-11-29T02:42:56.449Z,82.00
2022-11-29T02:45:13.686Z,81.40
2022-11-29T02:47:32.235Z,81.80
2022-11-29T02:50:00.309Z,81.60
2022-11-29T02:52:11.020Z,81.70
2022-11-29T02:54:24.858Z,82.20
2022-11-29T02:56:37.417Z,81.30
2022-11-29T02:58:50.383Z,80.30
2022-11-29T03:01:03.888Z,80.50
2022-11-29T03:03:21.658Z,80.30
2022-11-29T03:05:41.729Z,80.20
2022-11-29T03:07:56.717Z,80.10
2022-11-29T03:10:11.299Z,80.00
2022-11-29T03:12:28.923Z,79.20
2022-11-29T03:14:50.697Z,78.40
2022-11-29T03:17:07.553Z,78.00
2022-11-29T03:19:36.915Z,77.20
2022-11-29T03:21:59.194Z,77.10
2022-11-29T03:24:07.551Z,77.00
2022-11-29T03:26:18.061Z,76.40
2022-11-29T03:28:29.289Z,77.20
2022-11-29T03:30:39.723Z,77.00
2022-11-29T03:32:53.840Z,76.40
2022-11-29T03:35:07.526Z,76.20
2022-11-29T03:37:20.029Z,76.40
2022-11-29T03:39:33.304Z,75.90
2022-11-29T03:41:46.477Z,75.00
2022-11-29T03:44:00.621Z,74.20
2022-11-29T03:46:11.155Z,73.50
2022-11-29T03:48:21.695Z,73.30
2022-11-29T03:50:32.037Z,72.10
2022-11-29T03:52:47.830Z,71.10
2022-11-29T03:55:15.140Z,70.00
2022-11-29T03:57:29.127Z,70.10
2022-11-29T03:59:54.992Z,70.90
2022-11-29T04:02:29.967Z,71.50
2022-11-29T04:05:16.570Z,71.70
2022-11-29T04:07:46.643Z,71.00
2022-11-29T04:10:11.603Z,72.70
2022-11-29T04:12:52.167Z,72.90
2022-11-29T04:15:28.738Z,72.30
2022-11-29T04:18:01.876Z,71.20
2022-11-29T04:20:39.690Z,68.40
2022-11-29T04:25:51.793Z,69.00
2022-11-29T04:28:22.477Z,69.10
2022-11-29T04:30:30.987Z,67.30
2022-11-29T04:33:11.353Z,68.30
2022-11-29T04:35:38.598Z,67.80
2022-11-29T04:38:09.899Z,67.80
2022-11-29T04:40:40.066Z,67.80
2022-11-29T04:43:13.104Z,67.90
2022-11-29T04:45:50.929Z,68.20
2022-11-29T04:48:12.309Z,67.90
2022-11-29T04:50:40.288Z,68.10
2022-11-29T04:53:10.563Z,67.70
2022-11-29T04:55:31.128Z,66.20
2022-11-29T04:57:47.759Z,65.00
2022-11-29T05:00:00.308Z,65.30
2022-11-29T05:02:16.948Z,65.00
2022-11-29T05:04:28.966Z,64.10
2022-11-29T05:06:38.041Z,65.30
2022-11-29T05:08:52.034Z,63.30
2022-11-29T05:11:08.694Z,62.40
2022-11-29T05:13:29.796Z,62.50
2022-11-29T05:16:22.267Z,62.00
2022-11-29T05:18:44.624Z,63.20
2022-11-29T05:20:58.823Z,64.60
2022-11-29T05:23:21.348Z,64.90
2022-11-29T05:25:46.566Z,64.90
2022-11-29T05:27:57.895Z,64.30
2022-11-29T05:30:12.502Z,66.10
2022-11-29T05:32:31.252Z,66.50
2022-11-29T05:35:07.161Z,67.30
2022-11-29T05:37:28.983Z,68.40
2022-11-29T05:39:47.891Z,67.80
2022-11-29T05:42:10.979Z,66.50
2022-11-29T05:44:24.785Z,67.60
2022-11-29T05:46:41.017Z,67.20
2022-11-29T05:48:57.577Z,66.10
2022-11-29T05:51:14.795Z,65.60
2022-11-29T05:53:28.684Z,64.10
2022-11-29T05:55:47.539Z,64.30
2022-11-29T05:58:00.492Z,63.50
2022-11-29T06:00:10.811Z,64.10
2022-11-29T06:02:36.321Z,63.80
2022-11-29T06:04:54.766Z,63.00
2022-11-29T06:07:08.074Z,63.30
2022-11-29T06:11:48.517Z,62.20
2022-11-29T06:14:09.521Z,62.90
2022-11-29T06:16:38.232Z,62.40
2022-11-29T06:19:13.756Z,62.80
2022-11-29T06:21:32.609Z,63.80
2022-11-29T06:24:00.169Z,62.60
2022-11-29T06:26:23.736Z,61.90
2022-11-29T06:28:42.389Z,62.60
2022-11-29T06:31:02.145Z,63.60
2022-11-29T06:33:19.892Z,64.60
2022-11-29T06:35:46.732Z,65.70
2022-11-29T06:37:56.116Z,66.10
2022-11-29T06:40:03.760Z,67.60
2022-11-29T06:42:10.534Z,67.20
2022-11-29T06:44:18.584Z,67.40
2022-11-29T06:46:36.210Z,67.70
2022-11-29T06:48:48.561Z,67.70
2022-11-29T06:51:04.096Z,67.30
2022-11-29T06:53:20.129Z,67.10
2022-11-29T06:55:34.777Z,66.00
2022-11-29T06:57:56.770Z,65.40
2022-11-29T07:00:12.701Z,64.80
2022-11-29T07:02:34.938Z,64.90
2022-11-29T07:04:56.555Z,64.40
2022-11-29T07:07:04.710Z,64.40
2022-11-29T07:09:17.266Z,63.30
2022-11-29T07:11:25.120Z,63.70
2022-11-29T07:13:32.502Z,63.40
2022-11-29T07:15:42.142Z,63.30
2022-11-29T07:18:03.043Z,62.70
2022-11-29T07:20:20.674Z,62.60
2022-11-29T07:22:44.544Z,62.20
2022-11-29T07:25:02.719Z,62.10
2022-11-29T07:27:18.363Z,62.60
2022-11-29T07:29:35.478Z,62.50
2022-11-29T07:31:53.900Z,62.70
2022-11-29T07:34:08.169Z,63.10
2022-11-29T07:36:21.547Z,63.00
2022-11-29T07:38:38.715Z,64.00
2022-11-29T07:40:54.188Z,64.80
2022-11-29T07:43:14.990Z,64.90
2022-11-29T07:45:29.191Z,64.60
2022-11-29T07:47:36.323Z,64.50
2022-11-29T07:49:43.088Z,63.90
2022-11-29T07:51:50.321Z,63.60
2022-11-29T07:53:58.833Z,63.70
2022-11-29T07:56:05.966Z,63.60
2022-11-29T07:58:15.040Z,63.70
2022-11-29T08:00:23.450Z,63.50
2022-11-29T08:02:35.373Z,63.10
2022-11-29T08:04:45.937Z,62.50
2022-11-29T08:06:52.881Z,62.60
2022-11-29T08:09:03.340Z,62.40
2022-11-29T08:11:14.159Z,61.90
2022-11-29T08:13:23.238Z,63.10
2022-11-29T08:15:30.056Z,62.30
2022-11-29T08:17:37.183Z,61.90
2022-11-29T08:19:43.855Z,61.50
2022-11-29T08:21:52.161Z,61.20
2022-11-29T08:23:58.936Z,60.90
2022-11-29T08:26:08.421Z,61.30
2022-11-29T08:28:15.247Z,61.70
2022-11-29T08:30:23.401Z,62.20
2022-11-29T08:32:33.744Z,62.80
2022-11-29T08:34:40.731Z,63.30
2022-11-29T08:36:49.552Z,63.90
2022-11-29T08:39:03.407Z,64.00
2022-11-29T08:41:16.357Z,64.80
2022-11-29T08:43:23.843Z,65.30
2022-11-29T08:45:30.708Z,66.20
2022-11-29T08:47:42.200Z,66.80
2022-11-29T08:50:04.704Z,67.40
2022-11-29T08:52:30.511Z,67.70
2022-11-29T08:54:37.691Z,67.50
2022-11-29T08:59:13.354Z,67.50
2022-11-29T09:01:21.640Z,67.60
2022-11-29T09:03:45.689Z,67.80
2022-11-29T09:05:52.772Z,67.60
2022-11-29T09:08:01.430Z,67.60
2022-11-29T09:10:09.486Z,67.80
2022-11-29T09:12:18.305Z,68.20
2022-11-29T09:14:25.080Z,68.30
2022-11-29T09:16:34.158Z,68.20
2022-11-29T09:18:42.578Z,67.90
2022-11-29T09:20:51.129Z,67.20
2022-11-29T09:22:57.850Z,66.90
2022-11-29T09:25:04.880Z,67.10
2022-11-29T09:27:14.670Z,67.60
2022-11-29T09:29:23.798Z,67.10
2022-11-29T09:31:31.107Z,66.90
2022-11-29T09:33:38.418Z,66.70
2022-11-29T09:35:45.295Z,66.60
2022-11-29T09:37:52.929Z,66.70
2022-11-29T09:40:02.760Z,67.00
2022-11-29T09:42:28.241Z,66.70
2022-11-29T09:44:49.130Z,66.60
2022-11-29T09:47:04.821Z,66.50
2022-11-29T09:49:30.538Z,66.70
2022-11-29T09:51:46.631Z,66.80
2022-11-29T09:54:07.070Z,66.90
2022-11-29T09:56:24.903Z,67.40
2022-11-29T09:58:34.746Z,67.80
2022-11-29T10:00:51.450Z,68.50
2022-11-29T10:03:04.112Z,68.70
2022-11-29T10:05:20.100Z,68.80
2022-11-29T10:07:33.880Z,69.10
2022-11-29T10:09:47.111Z,69.40
2022-11-29T10:12:06.425Z,69.60
2022-11-29T10:14:18.982Z,69.50
2022-11-29T10:16:37.181Z,69.40
2022-11-29T10:18:49.425Z,69.10
2022-11-29T10:21:00.175Z,69.40
2022-11-29T10:23:17.613Z,70.70
2022-11-29T10:25:28.685Z,71.30
2022-11-29T10:27:36.427Z,71.90
2022-11-29T10:29:43.186Z,72.50
2022-11-29T10:31:52.070Z,73.00
2022-11-29T10:33:59.559Z,73.70
2022-11-29T10:36:08.584Z,74.10
2022-11-29T10:38:32.988Z,74.60
2022-11-29T10:40:42.815Z,74.60
2022-11-29T10:42:54.145Z,74.80
2022-11-29T10:45:02.706Z,75.30
2022-11-29T10:47:11.259Z,76.20
2022-11-29T10:49:21.155Z,76.00
2022-11-29T10:51:28.397Z,76.10
2022-11-29T10:53:40.954Z,76.10
2022-11-29T10:55:52.439Z,76.10
2022-11-29T10:58:14.313Z,76.20
2022-11-29T11:00:21.751Z,78.00
2022-11-29T11:02:30.673Z,78.10
2022-11-29T11:04:46.179Z,78.20
2022-11-29T11:06:57.174Z,78.40
2022-11-29T11:09:25.192Z,78.50
2022-11-29T11:11:34.474Z,79.40
2022-11-29T11:13:42.832Z,79.20
2022-11-29T11:15:50.115Z,79.50
2022-11-29T11:18:04.909Z,80.00
2022-11-29T11:20:25.932Z,80.70
2022-11-29T11:22:34.046Z,81.40
2022-11-29T11:24:44.036Z,81.40
2022-11-29T11:26:51.247Z,81.40
2022-11-29T11:29:01.981Z,81.40
2022-11-29T11:31:10.430Z,81.60
2022-11-29T11:33:24.084Z,81.90
2022-11-29T11:35:30.797Z,82.30
2022-11-29T11:37:38.367Z,82.70
2022-11-29T11:39:45.499Z,83.10
2022-11-29T11:42:25.468Z,83.60
2022-11-29T11:44:48.014Z,83.80
2022-11-29T11:46:56.624Z,83.90
2022-11-29T11:49:05.496Z,83.90
2022-11-29T11:51:24.055Z,84.00
2022-11-29T11:53:34.914Z,84.00
2022-11-29T11:55:44.346Z,84.10
2022-11-29T11:58:04.648Z,84.30
2022-11-29T12:03:39.983Z,85.20
2022-11-29T12:05:51.574Z,85.40
2022-11-29T12:08:10.023Z,85.60
2022-11-29T12:10:26.062Z,85.70
2022-11-29T12:12:36.311Z,86.10
2022-11-29T12:14:53.838Z,86.50
2022-11-29T12:17:15.465Z,86.60
2022-11-29T12:19:33.547Z,86.70
2022-11-29T12:21:47.284Z,87.10
2022-11-29T12:24:01.734Z,87.20
2022-11-29T12:26:34.531Z,87.40
2022-11-29T12:28:44.672Z,87.40
2022-11-29T12:30:57.881Z,87.50
2022-11-29T12:33:20.338Z,87.60
2022-11-29T12:35:45.948Z,87.70
2022-11-29T12:38:02.194Z,87.90
2022-11-29T12:40:16.902Z,87.90
2022-11-29T12:42:44.408Z,87.90
2022-11-29T12:44:59.833Z,88.10
2022-11-29T12:49:51.317Z,87.90
2022-11-29T12:52:05.467Z,88.00
2022-11-29T12:54:39.114Z,87.90
2022-11-29T12:56:53.660Z,87.90
2022-11-29T12:59:18.413Z,87.80
2022-11-29T13:01:32.927Z,88.00
2022-11-29T13:03:47.882Z,88.00
2022-11-29T13:06:05.711Z,88.30
2022-11-29T13:08:36.958Z,88.20
2022-11-29T13:10:59.042Z,88.50
2022-11-29T13:13:20.762Z,88.50
2022-11-29T13:15:28.148Z,88.30
2022-11-29T13:17:41.577Z,89.10
2022-11-29T13:19:53.685Z,88.60
2022-11-29T13:22:07.210Z,88.30
2022-11-29T13:24:18.992Z,88.30
2022-11-29T13:26:30.330Z,88.40
2022-11-29T13:28:40.527Z,88.30
2022-11-29T13:30:51.036Z,88.30
2022-11-29T13:33:06.777Z,88.70
2022-11-29T13:35:23.886Z,88.80
2022-11-29T13:37:35.722Z,89.10
2022-11-29T13:39:55.039Z,89.20
2022-11-29T13:42:10.820Z,89.20
2022-11-29T13:44:23.788Z,88.90
2022-11-29T13:46:36.553Z,88.50
2022-11-29T13:48:51.884Z,88.30
2022-11-29T13:53:23.795Z,88.80
2022-11-29T13:55:35.231Z,89.00
2022-11-29T13:58:15.331Z,89.40
2022-11-29T14:00:35.826Z,90.10
2022-11-29T14:02:42.712Z,90.60
2022-11-29T14:04:50.191Z,90.50
2022-11-29T14:07:11.040Z,90.60
2022-11-29T14:09:34.095Z,90.80
2022-11-29T14:11:49.804Z,91.00
2022-11-29T14:14:07.108Z,90.90
2022-11-29T14:16:22.954Z,91.10
2022-11-29T14:19:06.208Z,91.50
2022-11-29T14:21:21.504Z,92.10
2022-11-29T14:23:45.133Z,92.20
2022-11-29T14:26:28.087Z,92.20
2022-11-29T14:28:48.075Z,92.40
2022-11-29T14:31:02.902Z,92.60
2022-11-29T14:36:47.462Z,92.70
2022-11-29T14:39:11.707Z,93.10
2022-11-29T14:41:33.214Z,92.90
2022-11-29T14:43:47.163Z,93.00
2022-11-29T14:46:31.976Z,93.00
2022-11-29T14:48:42.387Z,93.10
2022-11-29T14:50:51.359Z,92.90
2022-11-29T14:53:05.348Z,92.80
2022-11-29T14:55:39.405Z,92.50
2022-11-29T14:58:28.211Z,92.70
2022-11-29T15:01:06.413Z,92.70
2022-11-29T15:03:32.998Z,92.70
2022-11-29T15:05:47.353Z,93.00
2022-11-29T15:08:09.752Z,92.90
2022-11-29T15:10:28.038Z,92.70
2022-11-29T15:12:41.098Z,92.80
2022-11-29T15:15:03.206Z,92.90
2022-11-29T15:17:39.086Z,92.80
2022-11-29T15:20:23.710Z,93.00
2022-11-29T15:22:51.831Z,93.10
2022-11-29T15:25:14.508Z,93.00
2022-11-29T15:27:36.214Z,92.90
2022-11-29T15:29:58.843Z,92.60
2022-11-29T15:32:20.207Z,92.30
2022-11-29T15:34:36.032Z,92.60
2022-11-29T15:36:53.350Z,93.10
2022-11-29T15:39:12.572Z,93.10
2022-11-29T15:41:30.811Z,93.10
2022-11-29T15:43:44.292Z,93.00
2022-11-29T15:45:55.954Z,92.90
2022-11-29T15:48:32.951Z,92.80
2022-11-29T15:50:49.764Z,92.90
2022-11-29T15:53:05.602Z,92.90
2022-11-29T15:55:22.615Z,92.90
2022-11-29T15:57:38.545Z,92.90
2022-11-29T15:59:54.277Z,92.90
2022-11-29T16:02:13.021Z,92.90
2022-11-29T16:04:24.156Z,92.90
2022-11-29T16:06:38.145Z,93.70
2022-11-29T16:08:52.606Z,93.30
2022-11-29T16:11:01.836Z,93.40
2022-11-29T16:13:32.977Z,93.90
2022-11-29T16:15:51.933Z,94.20
2022-11-29T16:18:08.579Z,94.30
2022-11-29T16:20:33.689Z,94.30
2022-11-29T16:22:47.460Z,94.50
2022-11-29T16:25:10.725Z,94.30
2022-11-29T16:27:19.445Z,94.50
2022-11-29T16:29:37.019Z,94.40
2022-11-29T16:31:46.133Z,94.60
2022-11-29T16:33:59.841Z,94.90
2022-11-29T16:36:18.797Z,95.10
2022-11-29T16:38:29.514Z,95.10
2022-11-29T16:40:42.889Z,94.80
2022-11-29T16:43:14.478Z,94.80
2022-11-29T16:45:40.287Z,94.80
2022-11-29T16:47:59.488Z,95.60
2022-11-29T16:50:23.598Z,95.30
2022-11-29T16:52:36.520Z,95.40
2022-11-29T16:54:55.119Z,95.20
2022-11-29T16:57:13.295Z,95.20
2022-11-29T16:59:27.650Z,94.90
2022-11-29T17:01:38.617Z,94.70
2022-11-29T17:03:47.905Z,94.70
2022-11-29T17:05:59.850Z,94.50
2022-11-29T17:08:13.896Z,94.60
2022-11-29T17:10:30.244Z,94.70
2022-11-29T17:12:48.248Z,94.80
2022-11-29T17:14:58.428Z,94.80
2022-11-29T17:17:08.520Z,94.70
2022-11-29T17:19:18.375Z,94.70
2022-11-29T17:21:28.782Z,94.80
2022-11-29T17:23:38.060Z,95.00
2022-11-29T17:25:53.794Z,95.20
2022-11-29T17:28:04.816Z,95.40
2022-11-29T17:30:16.337Z,95.60
2022-11-29T17:32:26.958Z,95.70
2022-11-29T17:34:38.486Z,95.70
2022-11-29T17:36:47.315Z,95.60
2022-11-29T17:38:59.105Z,95.60
2022-11-29T17:41:12.428Z,95.80
2022-11-29T17:43:23.504Z,96.00
2022-11-29T17:45:38.434Z,96.10
2022-11-29T17:47:52.754Z,96.20
2022-11-29T17:50:01.476Z,96.20
2022-11-29T17:52:15.875Z,96.10
2022-11-29T17:54:25.409Z,96.10
2022-11-29T17:56:34.181Z,96.10
2022-11-29T17:58:45.211Z,96.30
2022-11-29T18:00:55.478Z,96.40
2022-11-29T18:03:07.153Z,96.40
2022-11-29T18:05:16.222Z,96.40
2022-11-29T18:07:35.028Z,96.30
2022-11-29T18:09:43.910Z,96.40
2022-11-29T18:11:53.748Z,96.60
2022-11-29T18:14:08.096Z,96.80
2022-11-29T18:16:18.354Z,96.80
2022-11-29T18:18:27.314Z,96.70
2022-11-29T18:20:35.782Z,96.60
2022-11-29T18:22:44.451Z,96.60
2022-11-29T18:25:09.997Z,96.70
2022-11-29T18:27:26.053Z,96.80
2022-11-29T18:29:39.407Z,96.90
2022-11-29T18:31:49.429Z,97.00
2022-11-29T18:33:58.854Z,97.00
2022-11-29T18:36:11.060Z,96.80
2022-11-29T18:38:19.461Z,96.80
2022-11-29T18:40:28.181Z,96.70
2022-11-29T18:42:37.009Z,96.60
2022-11-29T18:44:47.383Z,96.50
2022-11-29T18:46:55.931Z,96.50
2022-11-29T18:49:05.418Z,96.60
2022-11-29T18:51:16.275Z,96.60
2022-11-29T18:53:24.943Z,96.50
2022-11-29T18:55:33.149Z,96.40
2022-11-29T18:57:42.589Z,96.40
2022-11-29T18:59:52.527Z,96.30
2022-11-29T19:02:00.636Z,96.20
2022-11-29T19:04:08.580Z,95.90
2022-11-29T19:06:18.780Z,95.80
2022-11-29T19:08:26.731Z,96.20
2022-11-29T19:10:35.145Z,96.40
2022-11-29T19:12:42.996Z,96.50
2022-11-29T19:14:52.990Z,96.60
2022-11-29T19:17:01.351Z,96.70
2022-11-29T19:19:11.366Z,96.50
2022-11-29T19:21:19.907Z,96.30
2022-11-29T19:23:28.825Z,96.00
2022-11-29T19:25:39.439Z,96.20
2022-11-29T19:27:50.112Z,96.30
2022-11-29T19:29:59.590Z,96.50
2022-11-29T19:32:08.116Z,96.10
2022-11-29T19:34:17.548Z,96.00
2022-11-29T19:36:28.518Z,96.20
2022-11-29T19:38:36.458Z,96.50
2022-11-29T19:40:45.227Z,96.90
2022-11-29T19:42:52.278Z,96.90
2022-11-29T19:45:16.617Z,97.00
2022-11-29T19:47:24.920Z,97.10
2022-11-29T19:49:32.256Z,97.30
2022-11-29T19:51:39.437Z,97.50
2022-11-29T19:53:46.935Z,97.50
2022-11-29T19:55:54.057Z,97.60
2022-11-29T19:58:01.187Z,97.70
2022-11-29T20:00:11.030Z,98.00
2022-11-29T20:02:21.287Z,98.10
2022-11-29T20:04:28.315Z,98.20
2022-11-29T20:06:35.445Z,98.10
2022-11-29T20:08:42.881Z,98.10
2022-11-29T20:10:50.317Z,98.10
2022-11-29T20:12:58.114Z,98.20
2022-11-29T20:15:05.704Z,98.20
2022-11-29T20:17:14.319Z,98.30
2022-11-29T20:19:21.757Z,98.30
2022-11-29T20:21:30.476Z,98.50
2022-11-29T20:23:37.913Z,98.40
2022-11-29T20:25:50.781Z,98.40
2022-11-29T20:27:58.012Z,98.30
2022-11-29T20:30:04.989Z,98.10
2022-11-29T20:32:14.421Z,98.00
2022-11-29T20:34:22.120Z,97.70
2022-11-29T20:36:45.528Z,97.90
2022-11-29T20:38:57.880Z,98.00
2022-11-29T20:41:16.121Z,98.10
2022-11-29T20:43:27.092Z,98.10
2022-11-29T20:45:34.887Z,98.00
2022-11-29T20:47:52.974Z,97.90
2022-11-29T20:50:00.260Z,97.90
2022-11-29T20:52:10.360Z,98.00
2022-11-29T20:54:24.300Z,97.80
2022-11-29T20:56:31.173Z,97.70
2022-11-29T20:58:38.970Z,98.00
2022-11-29T21:00:45.947Z,98.20
2022-11-29T21:02:54.818Z,98.40
2022-11-29T21:05:01.743Z,98.40
2022-11-29T21:07:08.977Z,98.30
2022-11-29T21:09:16.004Z,97.90
2022-11-29T21:11:24.057Z,98.00
2022-11-29T21:13:31.596Z,98.60
2022-11-29T21:15:39.659Z,99.00
2022-11-29T21:17:47.580Z,99.30
2022-11-29T21:19:57.237Z,99.50
2022-11-29T21:22:12.099Z,99.90
2022-11-29T21:24:33.207Z,99.90
2022-11-29T21:26:43.870Z,99.90
2022-11-29T21:29:00.216Z,99.90
2022-11-29T21:31:08.009Z,99.90
2022-11-29T21:33:15.502Z,99.90
2022-11-29T21:35:24.269Z,99.90
2022-11-29T21:37:32.989Z,99.90
2022-11-29T21:39:40.141Z,99.90
2022-11-29T21:41:46.894Z,99.90
2022-11-29T21:44:09.223Z,99.90
2022-11-29T21:46:15.261Z,99.90
2022-11-29T21:48:38.745Z,99.90
2022-11-29T21:50:52.226Z,99.90
2022-11-29T21:52:59.100Z,99.80
2022-11-29T21:55:07.051Z,99.50
2022-11-29T21:57:14.387Z,99.50
2022-11-29T21:59:21.259Z,99.50
2022-11-29T22:01:28.687Z,99.40
2022-11-29T22:03:35.520Z,99.40
2022-11-29T22:05:42.650Z,99.60
2022-11-29T22:07:51.200Z,99.60
2022-11-29T22:09:59.369Z,99.60
2022-11-29T22:12:25.918Z,99.50
2022-11-29T22:14:33.494Z,99.60
2022-11-29T22:16:40.319Z,99.60
2022-11-29T22:18:47.448Z,99.40
2022-11-29T22:20:54.222Z,99.10
2022-11-29T22:23:03.092Z,99.00
2022-11-29T22:25:10.174Z,98.90
2022-11-29T22:27:19.145Z,98.70
2022-11-29T22:29:26.533Z,98.70
2022-11-29T22:31:33.654Z,98.90
2022-11-29T22:33:40.689Z,98.90
2022-11-29T22:35:48.282Z,98.90
2022-11-29T22:37:55.901Z,98.70
2022-11-29T22:40:04.899Z,98.50
2022-11-29T22:42:11.719Z,98.70
2022-11-29T22:44:18.648Z,98.70
2022-11-29T22:46:27.350Z,98.60
2022-11-29T22:48:38.690Z,98.60
2022-11-29T22:50:45.927Z,98.50
2022-11-29T22:52:53.158Z,98.20
2022-11-29T22:55:04.480Z,98.20
2022-11-29T22:57:14.023Z,98.40
2022-11-29T22:59:20.846Z,98.60
2022-11-29T23:01:29.412Z,98.70
2022-11-29T23:03:38.281Z,98.70
2022-11-29T23:05:45.464Z,98.80
2022-11-29T23:07:56.594Z,99.10
2022-11-29T23:10:04.128Z,99.40
2022-11-29T23:12:13.460Z,99.70
2022-11-29T23:14:20.852Z,99.90
2022-11-29T23:16:29.114Z,99.90
2022-11-29T23:18:36.593Z,99.90
2022-11-29T23:20:43.417Z,99.90
2022-11-29T23:22:50.604Z,99.90
2022-11-29T23:24:57.472Z,99.90
2022-11-29T23:27:04.551Z,99.90
2022-11-29T23:29:15.110Z,99.90
2022-11-29T23:31:22.943Z,99.90
2022-11-29T23:33:30.703Z,99.90
2022-11-29T23:35:37.884Z,99.90
2022-11-29T23:37:44.709Z,99.70
2022-11-29T23:39:52.145Z,99.40
2022-11-29T23:41:58.869Z,99.70
2022-11-29T23:44:07.331Z,99.70
2022-11-29T23:46:18.743Z,99.80
2022-11-29T23:48:25.327Z,99.90
2022-11-29T23:50:32.307Z,99.90
2022-11-29T23:52:39.586Z,99.90
2022-11-29T23:54:46.700Z,99.90
2022-11-29T23:56:53.899Z,99.90
2022-11-29T23:59:00.724Z,99.90
